sensor_id;sensor_type;location;lat;lon;timestamp;pressure;altitude;pressure_sealevel;temperature;humidity
30730;BME280;17476;48.458;7.928;2023-03-04T00:01:17;100624.50;;;2.09;84.45
30730;BME280;17476;48.458;7.928;2023-03-04T00:03:43;100624.59;;;2.08;83.92
30730;BME280;17476;48.458;7.928;2023-03-04T00:06:08;100625.63;;;2.05;84.22
30730;BME280;17476;48.458;7.928;2023-03-04T00:08:34;100628.22;;;2.05;84.20
30730;BME280;17476;48.458;7.928;2023-03-04T00:11:00;100635.28;;;2.02;83.76
30730;BME280;17476;48.458;7.928;2023-03-04T00:13:26;100634.56;;;2.00;83.63
30730;BME280;17476;48.458;7.928;2023-03-04T00:15:52;100638.69;;;2.02;84.22
30730;BME280;17476;48.458;7.928;2023-03-04T00:18:18;100629.31;;;1.87;84.80
30730;BME280;17476;48.458;7.928;2023-03-04T00:20:46;100630.38;;;1.83;85.88
30730;BME280;17476;48.458;7.928;2023-03-04T00:23:12;100638.88;;;1.85;85.22
30730;BME280;17476;48.458;7.928;2023-03-04T00:25:38;100637.97;;;1.86;84.93
30730;BME280;17476;48.458;7.928;2023-03-04T00:28:04;100638.88;;;1.85;84.66
30730;BME280;17476;48.458;7.928;2023-03-04T00:30:30;100633.84;;;1.83;84.54
30730;BME280;17476;48.458;7.928;2023-03-04T00:32:56;100630.38;;;1.83;84.25
30730;BME280;17476;48.458;7.928;2023-03-04T00:35:22;100632.34;;;1.79;84.34
30730;BME280;17476;48.458;7.928;2023-03-04T00:37:48;100629.09;;;1.76;83.78
30730;BME280;17476;48.458;7.928;2023-03-04T00:40:14;100640.16;;;1.78;84.10
30730;BME280;17476;48.458;7.928;2023-03-04T00:42:40;100629.09;;;1.76;84.93
30730;BME280;17476;48.458;7.928;2023-03-04T00:45:07;100641.16;;;1.75;85.08
30730;BME280;17476;48.458;7.928;2023-03-04T00:47:34;100639.31;;;1.63;85.31
30730;BME280;17476;48.458;7.928;2023-03-04T00:50:00;100644.53;;;1.61;85.26
30730;BME280;17476;48.458;7.928;2023-03-04T00:52:26;100634.06;;;1.64;85.31
30730;BME280;17476;48.458;7.928;2023-03-04T00:54:52;100640.22;;;1.62;85.17
30730;BME280;17476;48.458;7.928;2023-03-04T00:57:18;100630.81;;;1.61;85.06
30730;BME280;17476;48.458;7.928;2023-03-04T00:59:44;100630.09;;;1.59;84.40
30730;BME280;17476;48.458;7.928;2023-03-04T01:02:11;100639.56;;;1.58;85.24
30730;BME280;17476;48.458;7.928;2023-03-04T01:04:38;100628.53;;;1.56;84.83
30730;BME280;17476;48.458;7.928;2023-03-04T01:07:04;100628.53;;;1.56;84.50
30730;BME280;17476;48.458;7.928;2023-03-04T01:09:30;100632.00;;;1.55;84.57
30730;BME280;17476;48.458;7.928;2023-03-04T01:11:56;100627.03;;;1.52;84.24
30730;BME280;17476;48.458;7.928;2023-03-04T01:14:22;100633.13;;;1.51;84.21
30730;BME280;17476;48.458;7.928;2023-03-04T01:16:49;100631.53;;;1.49;84.44
30730;BME280;17476;48.458;7.928;2023-03-04T01:19:15;100628.31;;;1.45;84.19
30730;BME280;17476;48.458;7.928;2023-03-04T01:21:41;100630.16;;;1.43;84.26
30730;BME280;17476;48.458;7.928;2023-03-04T01:24:07;100622.44;;;1.43;84.17
30730;BME280;17476;48.458;7.928;2023-03-04T01:26:33;100629.34;;;1.43;83.70
30730;BME280;17476;48.458;7.928;2023-03-04T01:28:59;100629.50;;;1.40;83.96
30730;BME280;17476;48.458;7.928;2023-03-04T01:31:25;100619.38;;;1.36;84.27
30730;BME280;17476;48.458;7.928;2023-03-04T01:33:51;100630.50;;;1.37;84.58
30730;BME280;17476;48.458;7.928;2023-03-04T01:36:17;100621.28;;;1.33;83.73
30730;BME280;17476;48.458;7.928;2023-03-04T01:38:43;100616.31;;;1.30;84.14
30730;BME280;17476;48.458;7.928;2023-03-04T01:41:11;100624.97;;;1.29;84.10
30730;BME280;17476;48.458;7.928;2023-03-04T01:43:38;100624.22;;;1.27;83.87
30730;BME280;17476;48.458;7.928;2023-03-04T01:46:05;100617.41;;;1.26;83.93
30730;BME280;17476;48.458;7.928;2023-03-04T01:48:36;100619.25;;;1.24;84.23
30730;BME280;17476;48.458;7.928;2023-03-04T01:51:11;100618.47;;;1.22;83.80
30730;BME280;17476;48.458;7.928;2023-03-04T01:53:38;100616.91;;;1.19;84.21
30730;BME280;17476;48.458;7.928;2023-03-04T01:56:35;100629.88;;;1.18;84.30
30730;BME280;17476;48.458;7.928;2023-03-04T01:59:21;100624.06;;;1.14;84.48
30730;BME280;17476;48.458;7.928;2023-03-04T02:01:59;100617.25;;;1.13;84.10
30730;BME280;17476;48.458;7.928;2023-03-04T02:04:31;100629.41;;;1.11;83.83
30730;BME280;17476;48.458;7.928;2023-03-04T02:07:00;100621.84;;;1.08;83.95
30730;BME280;17476;48.458;7.928;2023-03-04T02:09:28;100613.56;;;1.03;84.14
30730;BME280;17476;48.458;7.928;2023-03-04T02:11:54;100622.13;;;1.03;84.32
30730;BME280;17476;48.458;7.928;2023-03-04T02:14:21;100615.31;;;1.02;84.08
30730;BME280;17476;48.458;7.928;2023-03-04T02:16:48;100616.13;;;1.03;83.64
30730;BME280;17476;48.458;7.928;2023-03-04T02:19:49;100613.81;;;0.98;84.08
30730;BME280;17476;48.458;7.928;2023-03-04T02:22:17;100613.75;;;0.84;85.10
30730;BME280;17476;48.458;7.928;2023-03-04T02:25:34;100614.47;;;0.86;85.53
30730;BME280;17476;48.458;7.928;2023-03-04T02:27:39;100611.09;;;0.86;85.00
30730;BME280;17476;48.458;7.928;2023-03-04T02:30:05;100613.66;;;0.86;84.67
30730;BME280;17476;48.458;7.928;2023-03-04T02:32:32;100611.81;;;0.88;84.23
30730;BME280;17476;48.458;7.928;2023-03-04T02:34:57;100608.41;;;0.87;84.73
30730;BME280;17476;48.458;7.928;2023-03-04T02:37:23;100611.16;;;0.84;84.16
30730;BME280;17476;48.458;7.928;2023-03-04T02:39:49;100617.16;;;0.85;84.28
30730;BME280;17476;48.458;7.928;2023-03-04T02:42:16;100616.47;;;0.81;84.13
30730;BME280;17476;48.458;7.928;2023-03-04T02:45:00;100609.66;;;0.80;84.09
30730;BME280;17476;48.458;7.928;2023-03-04T02:47:27;100607.28;;;0.77;84.17
30730;BME280;17476;48.458;7.928;2023-03-04T02:49:53;100610.84;;;0.74;84.09
30730;BME280;17476;48.458;7.928;2023-03-04T02:52:25;100611.75;;;0.73;83.84
30730;BME280;17476;48.458;7.928;2023-03-04T02:54:51;100612.03;;;0.69;84.04
30730;BME280;17476;48.458;7.928;2023-03-04T02:57:17;100610.09;;;0.72;84.53
30730;BME280;17476;48.458;7.928;2023-03-04T02:59:43;100610.84;;;0.74;84.27
30730;BME280;17476;48.458;7.928;2023-03-04T03:02:09;100613.69;;;0.70;83.94
30730;BME280;17476;48.458;7.928;2023-03-04T03:04:37;100607.78;;;0.68;83.98
30730;BME280;17476;48.458;7.928;2023-03-04T03:07:03;100610.53;;;0.65;84.55
30730;BME280;17476;48.458;7.928;2023-03-04T03:09:29;100600.22;;;0.65;84.21
30730;BME280;17476;48.458;7.928;2023-03-04T03:11:55;100610.28;;;0.69;84.98
30730;BME280;17476;48.458;7.928;2023-03-04T03:14:21;100615.84;;;0.62;84.44
30730;BME280;17476;48.458;7.928;2023-03-04T03:16:47;100603.22;;;0.57;84.77
30730;BME280;17476;48.458;7.928;2023-03-04T03:19:12;100611.03;;;0.56;84.86
30730;BME280;17476;48.458;7.928;2023-03-04T03:21:38;100606.81;;;0.54;84.41
30730;BME280;17476;48.458;7.928;2023-03-04T03:24:04;100610.34;;;0.52;84.47
30730;BME280;17476;48.458;7.928;2023-03-04T03:26:30;100613.75;;;0.52;84.23
30730;BME280;17476;48.458;7.928;2023-03-04T03:28:56;100620.66;;;0.52;84.08
30730;BME280;17476;48.458;7.928;2023-03-04T03:31:22;100610.44;;;0.50;84.33
30730;BME280;17476;48.458;7.928;2023-03-04T03:33:47;100607.13;;;0.48;83.94
30730;BME280;17476;48.458;7.928;2023-03-04T03:36:13;100609.72;;;0.48;83.93
30730;BME280;17476;48.458;7.928;2023-03-04T03:38:39;100615.19;;;0.42;84.07
30730;BME280;17476;48.458;7.928;2023-03-04T03:41:05;100610.19;;;0.39;84.52
30730;BME280;17476;48.458;7.928;2023-03-04T03:43:31;100611.34;;;0.34;84.77
30730;BME280;17476;48.458;7.928;2023-03-04T03:45:56;100617.34;;;0.34;84.50
30730;BME280;17476;48.458;7.928;2023-03-04T03:48:22;100614.00;;;0.32;85.09
30730;BME280;17476;48.458;7.928;2023-03-04T03:50:48;100610.41;;;0.19;85.63
30730;BME280;17476;48.458;7.928;2023-03-04T03:53:14;100611.31;;;0.18;85.78
30730;BME280;17476;48.458;7.928;2023-03-04T03:55:40;100616.31;;;0.21;85.17
30730;BME280;17476;48.458;7.928;2023-03-04T03:58:06;100612.84;;;0.22;85.25
30730;BME280;17476;48.458;7.928;2023-03-04T04:00:32;100618.72;;;0.24;85.42
30730;BME280;17476;48.458;7.928;2023-03-04T04:02:59;100617.81;;;0.25;85.21
30730;BME280;17476;48.458;7.928;2023-03-04T04:05:25;100622.84;;;0.26;85.00
30730;BME280;17476;48.458;7.928;2023-03-04T04:07:51;100623.34;;;0.17;86.45
30730;BME280;17476;48.458;7.928;2023-03-04T04:10:17;100622.25;;;0.06;86.81
30730;BME280;17476;48.458;7.928;2023-03-04T04:12:43;100623.41;;;0.00;86.17
30730;BME280;17476;48.458;7.928;2023-03-04T04:15:12;100634.97;;;-0.09;87.62
30730;BME280;17476;48.458;7.928;2023-03-04T04:17:38;100627.44;;;-0.12;87.00
30730;BME280;17476;48.458;7.928;2023-03-04T04:20:06;100624.88;;;-0.12;86.85
30730;BME280;17476;48.458;7.928;2023-03-04T04:22:32;100628.19;;;-0.10;86.19
30730;BME280;17476;48.458;7.928;2023-03-04T04:24:58;100630.63;;;-0.07;86.02
30730;BME280;17476;48.458;7.928;2023-03-04T04:27:24;100632.09;;;-0.03;85.48
30730;BME280;17476;48.458;7.928;2023-03-04T04:29:49;100622.72;;;-0.04;85.09
30730;BME280;17476;48.458;7.928;2023-03-04T04:32:15;100629.19;;;-0.12;86.67
30730;BME280;17476;48.458;7.928;2023-03-04T04:34:41;100630.31;;;-0.18;87.03
30730;BME280;17476;48.458;7.928;2023-03-04T04:37:09;100631.16;;;-0.17;87.34
30730;BME280;17476;48.458;7.928;2023-03-04T04:39:35;100624.88;;;-0.12;86.43
30730;BME280;17476;48.458;7.928;2023-03-04T04:42:01;100627.34;;;-0.10;86.09
30730;BME280;17476;48.458;7.928;2023-03-04T04:44:27;100624.69;;;-0.09;85.41
30730;BME280;17476;48.458;7.928;2023-03-04T04:46:53;100634.16;;;-0.09;84.81
30730;BME280;17476;48.458;7.928;2023-03-04T04:49:19;100636.81;;;-0.11;85.37
30730;BME280;17476;48.458;7.928;2023-03-04T04:51:45;100636.81;;;-0.11;84.91
30730;BME280;17476;48.458;7.928;2023-03-04T04:54:12;100632.59;;;-0.12;84.72
30730;BME280;17476;48.458;7.928;2023-03-04T04:56:38;100635.97;;;-0.11;84.45
30730;BME280;17476;48.458;7.928;2023-03-04T04:59:05;100636.94;;;-0.14;84.97
30730;BME280;17476;48.458;7.928;2023-03-04T05:01:33;100641.25;;;-0.14;84.39
30730;BME280;17476;48.458;7.928;2023-03-04T05:03:59;100650.72;;;-0.15;84.90
30730;BME280;17476;48.458;7.928;2023-03-04T05:06:25;100648.31;;;-0.18;84.84
30730;BME280;17476;48.458;7.928;2023-03-04T05:08:51;100638.13;;;-0.19;84.96
30730;BME280;17476;48.458;7.928;2023-03-04T05:11:18;100647.41;;;-0.17;84.60
30730;BME280;17476;48.458;7.928;2023-03-04T05:13:45;100638.16;;;-0.21;84.82
30730;BME280;17476;48.458;7.928;2023-03-04T05:16:11;100642.56;;;-0.23;84.45
30730;BME280;17476;48.458;7.928;2023-03-04T05:18:38;100645.06;;;-0.21;84.92
30730;BME280;17476;48.458;7.928;2023-03-04T05:21:04;100646.72;;;-0.20;84.85
30730;BME280;17476;48.458;7.928;2023-03-04T05:23:36;100639.25;;;-0.25;84.21
30730;BME280;17476;48.458;7.928;2023-03-04T05:26:04;100644.41;;;-0.25;84.52
30730;BME280;17476;48.458;7.928;2023-03-04T05:28:31;100645.31;;;-0.26;84.98
30730;BME280;17476;48.458;7.928;2023-03-04T05:30:56;100647.19;;;-0.30;84.65
30730;BME280;17476;48.458;7.928;2023-03-04T05:33:22;100648.00;;;-0.29;84.56
30730;BME280;17476;48.458;7.928;2023-03-04T05:35:49;100646.28;;;-0.29;84.42
30730;BME280;17476;48.458;7.928;2023-03-04T05:38:18;100643.78;;;-0.30;84.92
30730;BME280;17476;48.458;7.928;2023-03-04T05:40:45;100639.56;;;-0.31;84.91
30730;BME280;17476;48.458;7.928;2023-03-04T05:43:12;100644.84;;;-0.34;84.19
30730;BME280;17476;48.458;7.928;2023-03-04T05:45:38;100652.78;;;-0.39;84.42
30730;BME280;17476;48.458;7.928;2023-03-04T05:48:05;100649.44;;;-0.41;84.29
30730;BME280;17476;48.458;7.928;2023-03-04T05:50:31;100648.56;;;-0.40;84.30
30730;BME280;17476;48.458;7.928;2023-03-04T05:52:58;100653.75;;;-0.41;84.57
30730;BME280;17476;48.458;7.928;2023-03-04T05:55:25;100653.09;;;-0.45;84.71
30730;BME280;17476;48.458;7.928;2023-03-04T05:57:53;100665.19;;;-0.47;84.80
30730;BME280;17476;48.458;7.928;2023-03-04T06:00:19;100664.19;;;-0.44;84.82
30730;BME280;17476;48.458;7.928;2023-03-04T06:02:45;100663.44;;;-0.46;84.57
30730;BME280;17476;48.458;7.928;2023-03-04T06:05:13;100662.63;;;-0.47;85.11
30730;BME280;17476;48.458;7.928;2023-03-04T06:07:40;100656.56;;;-0.46;84.86
30730;BME280;17476;48.458;7.928;2023-03-04T06:10:09;100661.84;;;-0.49;85.00
30730;BME280;17476;48.458;7.928;2023-03-04T06:12:36;100677.25;;;-0.49;85.54
30730;BME280;17476;48.458;7.928;2023-03-04T06:15:01;100677.25;;;-0.49;85.05
30730;BME280;17476;48.458;7.928;2023-03-04T06:17:28;100684.06;;;-0.48;85.14
30730;BME280;17476;48.458;7.928;2023-03-04T06:19:54;100686.69;;;-0.49;84.99
30730;BME280;17476;48.458;7.928;2023-03-04T06:22:20;100685.78;;;-0.48;84.64
30730;BME280;17476;48.458;7.928;2023-03-04T06:24:46;100678.91;;;-0.48;85.24
30730;BME280;17476;48.458;7.928;2023-03-04T06:27:12;100695.03;;;-0.44;85.33
30730;BME280;17476;48.458;7.928;2023-03-04T06:29:38;100691.47;;;-0.42;86.09
30730;BME280;17476;48.458;7.928;2023-03-04T06:32:04;100698.78;;;-0.34;86.40
30730;BME280;17476;48.458;7.928;2023-03-04T06:34:30;100690.66;;;-0.25;87.46
30730;BME280;17476;48.458;7.928;2023-03-04T06:36:58;100706.44;;;-0.15;87.11
30730;BME280;17476;48.458;7.928;2023-03-04T06:39:24;100701.91;;;-0.10;87.49
30730;BME280;17476;48.458;7.928;2023-03-04T06:41:50;100701.69;;;-0.06;86.99
30730;BME280;17476;48.458;7.928;2023-03-04T06:44:16;100698.72;;;0.02;87.72
30730;BME280;17476;48.458;7.928;2023-03-04T06:46:42;100703.59;;;0.07;87.43
30730;BME280;17476;48.458;7.928;2023-03-04T06:49:08;100708.53;;;0.11;87.61
30730;BME280;17476;48.458;7.928;2023-03-04T06:51:34;100706.38;;;0.19;87.98
30730;BME280;17476;48.458;7.928;2023-03-04T06:54:00;100700.28;;;0.22;87.44
30730;BME280;17476;48.458;7.928;2023-03-04T06:56:26;100707.81;;;0.25;86.74
30730;BME280;17476;48.458;7.928;2023-03-04T06:58:52;100703.41;;;0.27;87.02
30730;BME280;17476;48.458;7.928;2023-03-04T07:01:23;100709.06;;;0.34;87.30
30730;BME280;17476;48.458;7.928;2023-03-04T07:03:52;100708.84;;;0.38;87.51
30730;BME280;17476;48.458;7.928;2023-03-04T07:06:21;100720.47;;;0.45;87.65
30730;BME280;17476;48.458;7.928;2023-03-04T07:08:48;100715.84;;;0.52;88.14
30730;BME280;17476;48.458;7.928;2023-03-04T07:11:14;100717.19;;;0.59;87.75
30730;BME280;17476;48.458;7.928;2023-03-04T07:13:41;100709.97;;;0.66;87.59
30730;BME280;17476;48.458;7.928;2023-03-04T07:16:11;100718.47;;;0.68;86.95
30730;BME280;17476;48.458;7.928;2023-03-04T07:18:37;100717.38;;;0.72;86.98
30730;BME280;17476;48.458;7.928;2023-03-04T07:21:04;100714.81;;;0.72;87.43
30730;BME280;17476;48.458;7.928;2023-03-04T07:23:31;100720.06;;;0.37;89.79
30730;BME280;17476;48.458;7.928;2023-03-04T07:25:57;100728.13;;;0.14;91.72
30730;BME280;17476;48.458;7.928;2023-03-04T07:28:23;100723.44;;;0.22;92.19
30730;BME280;17476;48.458;7.928;2023-03-04T07:30:49;100722.53;;;0.39;91.99
30730;BME280;17476;48.458;7.928;2023-03-04T07:33:14;100726.56;;;0.60;92.20
30730;BME280;17476;48.458;7.928;2023-03-04T07:35:40;100715.81;;;0.85;91.17
30730;BME280;17476;48.458;7.928;2023-03-04T07:38:07;100731.75;;;1.07;89.71
30730;BME280;17476;48.458;7.928;2023-03-04T07:40:33;100731.91;;;1.20;89.63
30730;BME280;17476;48.458;7.928;2023-03-04T07:42:58;100738.81;;;1.35;90.04
30730;BME280;17476;48.458;7.928;2023-03-04T07:45:25;100731.97;;;1.50;89.67
30730;BME280;17476;48.458;7.928;2023-03-04T07:47:51;100733.44;;;1.70;88.75
30730;BME280;17476;48.458;7.928;2023-03-04T07:50:17;100731.72;;;1.85;89.38
30730;BME280;17476;48.458;7.928;2023-03-04T07:52:46;100742.19;;;2.12;88.08
30730;BME280;17476;48.458;7.928;2023-03-04T07:55:15;100742.31;;;2.25;87.77
30730;BME280;17476;48.458;7.928;2023-03-04T07:57:43;100736.22;;;2.40;88.71
30730;BME280;17476;48.458;7.928;2023-03-04T08:00:12;100746.19;;;2.60;88.57
30730;BME280;17476;48.458;7.928;2023-03-04T08:02:39;100749.41;;;2.78;86.78
30730;BME280;17476;48.458;7.928;2023-03-04T08:05:05;100744.69;;;2.85;85.84
30730;BME280;17476;48.458;7.928;2023-03-04T08:07:32;100744.56;;;3.00;90.31
30730;BME280;17476;48.458;7.928;2023-03-04T08:09:57;100737.28;;;3.07;90.01
30730;BME280;17476;48.458;7.928;2023-03-04T08:12:24;100746.28;;;3.14;90.18
30730;BME280;17476;48.458;7.928;2023-03-04T08:14:51;100742.75;;;3.29;90.85
30730;BME280;17476;48.458;7.928;2023-03-04T08:17:17;100738.34;;;3.44;91.01
30730;BME280;17476;48.458;7.928;2023-03-04T08:19:43;100739.13;;;3.59;89.06
30730;BME280;17476;48.458;7.928;2023-03-04T08:22:09;100740.69;;;3.62;86.17
30730;BME280;17476;48.458;7.928;2023-03-04T08:24:35;100745.41;;;3.95;89.91
30730;BME280;17476;48.458;7.928;2023-03-04T08:27:01;100748.53;;;4.13;89.49
30730;BME280;17476;48.458;7.928;2023-03-04T08:29:27;100732.91;;;4.52;86.42
30730;BME280;17476;48.458;7.928;2023-03-04T08:31:54;100743.94;;;4.80;86.51
30730;BME280;17476;48.458;7.928;2023-03-04T08:34:24;100739.81;;;5.14;84.04
30730;BME280;17476;48.458;7.928;2023-03-04T08:36:50;100749.38;;;5.37;84.34
30730;BME280;17476;48.458;7.928;2023-03-04T08:39:17;100742.03;;;5.55;80.91
30730;BME280;17476;48.458;7.928;2023-03-04T08:41:45;100746.44;;;5.66;77.74
30730;BME280;17476;48.458;7.928;2023-03-04T08:44:11;100742.25;;;5.76;81.88
30730;BME280;17476;48.458;7.928;2023-03-04T08:46:40;100754.53;;;5.85;84.23
30730;BME280;17476;48.458;7.928;2023-03-04T08:49:07;100755.31;;;5.98;84.76
30730;BME280;17476;48.458;7.928;2023-03-04T08:51:34;100749.97;;;6.24;86.94
30730;BME280;17476;48.458;7.928;2023-03-04T08:54:02;100739.69;;;6.67;84.04
30730;BME280;17476;48.458;7.928;2023-03-04T08:56:27;100745.22;;;7.07;78.69
30730;BME280;17476;48.458;7.928;2023-03-04T08:58:53;100736.28;;;7.64;78.98
30730;BME280;17476;48.458;7.928;2023-03-04T09:01:19;100738.66;;;8.09;75.56
30730;BME280;17476;48.458;7.928;2023-03-04T09:03:45;100741.00;;;8.33;75.35
30730;BME280;17476;48.458;7.928;2023-03-04T09:06:14;100743.47;;;8.56;71.24
30730;BME280;17476;48.458;7.928;2023-03-04T09:08:41;100743.31;;;8.88;69.02
30730;BME280;17476;48.458;7.928;2023-03-04T09:11:07;100742.72;;;9.24;65.14
30730;BME280;17476;48.458;7.928;2023-03-04T09:13:33;100749.72;;;9.34;66.69
30730;BME280;17476;48.458;7.928;2023-03-04T09:15:59;100736.44;;;9.56;62.22
30730;BME280;17476;48.458;7.928;2023-03-04T09:18:26;100733.13;;;9.83;64.91
30730;BME280;17476;48.458;7.928;2023-03-04T09:20:52;100735.69;;;10.12;64.92
30730;BME280;17476;48.458;7.928;2023-03-04T09:23:18;100741.00;;;10.39;62.23
30730;BME280;17476;48.458;7.928;2023-03-04T09:25:46;100733.84;;;10.69;61.29
30730;BME280;17476;48.458;7.928;2023-03-04T09:28:14;100732.78;;;10.89;59.19
30730;BME280;17476;48.458;7.928;2023-03-04T09:30:40;100736.44;;;11.24;67.51
30730;BME280;17476;48.458;7.928;2023-03-04T09:33:07;100731.19;;;11.24;62.60
30730;BME280;17476;48.458;7.928;2023-03-04T09:35:32;100730.03;;;11.36;64.45
30730;BME280;17476;48.458;7.928;2023-03-04T09:37:59;100729.06;;;11.73;64.60
30730;BME280;17476;48.458;7.928;2023-03-04T09:40:42;100730.16;;;12.06;55.79
30730;BME280;17476;48.458;7.928;2023-03-04T09:43:21;100731.75;;;11.99;55.07
30730;BME280;17476;48.458;7.928;2023-03-04T09:45:53;100733.28;;;12.10;62.65
30730;BME280;17476;48.458;7.928;2023-03-04T09:48:22;100727.41;;;12.16;56.88
30730;BME280;17476;48.458;7.928;2023-03-04T09:51:20;100728.31;;;12.33;55.87
30730;BME280;17476;48.458;7.928;2023-03-04T10:01:19;100726.09;;;12.80;55.16
30730;BME280;17476;48.458;7.928;2023-03-04T10:03:47;100731.69;;;12.85;57.68
30730;BME280;17476;48.458;7.928;2023-03-04T10:06:19;100729.06;;;12.85;58.51
30730;BME280;17476;48.458;7.928;2023-03-04T10:11:54;100722.00;;;12.85;49.75
30730;BME280;17476;48.458;7.928;2023-03-04T10:14:37;100724.63;;;12.77;48.78
30730;BME280;17476;48.458;7.928;2023-03-04T10:22:34;100718.16;;;12.64;48.80
30730;BME280;17476;48.458;7.928;2023-03-04T10:25:31;100711.31;;;12.71;51.47
30730;BME280;17476;48.458;7.928;2023-03-04T10:28:17;100714.13;;;12.77;49.47
30730;BME280;17476;48.458;7.928;2023-03-04T10:33:38;100723.06;;;11.63;50.74
30730;BME280;17476;48.458;7.928;2023-03-04T10:39:21;100710.41;;;11.76;53.34
30730;BME280;17476;48.458;7.928;2023-03-04T10:42:01;100714.88;;;12.27;51.76
30730;BME280;17476;48.458;7.928;2023-03-04T10:44:29;100702.88;;;12.59;49.23
30730;BME280;17476;48.458;7.928;2023-03-04T10:46:57;100710.03;;;12.75;49.49
30730;BME280;17476;48.458;7.928;2023-03-04T10:49:24;100712.19;;;12.88;48.34
30730;BME280;17476;48.458;7.928;2023-03-04T10:52:00;100704.53;;;13.19;47.41
30730;BME280;17476;48.458;7.928;2023-03-04T10:59:58;100696.53;;;14.10;43.29
30730;BME280;17476;48.458;7.928;2023-03-04T11:10:28;100686.03;;;15.42;43.20
30730;BME280;17476;48.458;7.928;2023-03-04T11:15:26;100670.09;;;16.26;41.29
30730;BME280;17476;48.458;7.928;2023-03-04T11:18:09;100666.47;;;16.27;41.35
30730;BME280;17476;48.458;7.928;2023-03-04T11:20:45;100670.38;;;16.16;42.40
30730;BME280;17476;48.458;7.928;2023-03-04T11:23:15;100666.91;;;16.30;42.09
30730;BME280;17476;48.458;7.928;2023-03-04T11:25:49;100662.41;;;16.46;40.16
30730;BME280;17476;48.458;7.928;2023-03-04T11:28:29;100653.75;;;16.81;40.01
30730;BME280;17476;48.458;7.928;2023-03-04T11:31:05;100650.88;;;16.98;39.68
30730;BME280;17476;48.458;7.928;2023-03-04T11:33:42;100657.75;;;16.77;38.90
30730;BME280;17476;48.458;7.928;2023-03-04T11:36:57;100650.19;;;17.10;38.10
30730;BME280;17476;48.458;7.928;2023-03-04T11:42:54;100636.53;;;17.78;40.04
30730;BME280;17476;48.458;7.928;2023-03-04T11:48:51;100637.56;;;17.55;38.33
30730;BME280;17476;48.458;7.928;2023-03-04T11:56:44;100628.81;;;18.17;37.19
30730;BME280;17476;48.458;7.928;2023-03-04T11:59:49;100621.38;;;17.99;37.19
30730;BME280;17476;48.458;7.928;2023-03-04T12:02:24;100621.91;;;18.16;38.32
30730;BME280;17476;48.458;7.928;2023-03-04T12:05:28;100614.03;;;18.30;35.89
30730;BME280;17476;48.458;7.928;2023-03-04T12:08:16;100614.44;;;18.33;35.79
30730;BME280;17476;48.458;7.928;2023-03-04T12:14:07;100597.56;;;17.99;36.30
30730;BME280;17476;48.458;7.928;2023-03-04T12:17:32;100598.00;;;18.03;37.36
30730;BME280;17476;48.458;7.928;2023-03-04T12:20:13;100595.03;;;18.19;36.28
30730;BME280;17476;48.458;7.928;2023-03-04T12:23:13;100587.28;;;17.77;36.75
30730;BME280;17476;48.458;7.928;2023-03-04T12:29:06;100586.25;;;18.19;36.16
30730;BME280;17476;48.458;7.928;2023-03-04T12:31:51;100584.88;;;18.30;36.77
30730;BME280;17476;48.458;7.928;2023-03-04T12:34:31;100578.59;;;18.37;36.20
30730;BME280;17476;48.458;7.928;2023-03-04T12:37:39;100578.09;;;18.81;36.13
30730;BME280;17476;48.458;7.928;2023-03-04T12:43:07;100568.75;;;18.86;34.89
30730;BME280;17476;48.458;7.928;2023-03-04T12:54:33;100567.97;;;19.25;34.50
30730;BME280;17476;48.458;7.928;2023-03-04T12:57:22;100565.66;;;18.82;34.56
30730;BME280;17476;48.458;7.928;2023-03-04T12:59:59;100562.41;;;18.73;34.74
30730;BME280;17476;48.458;7.928;2023-03-04T13:02:55;100557.34;;;18.92;33.43
30730;BME280;17476;48.458;7.928;2023-03-04T13:16:59;100553.53;;;18.40;34.73
30730;BME280;17476;48.458;7.928;2023-03-04T13:19:55;100552.47;;;18.27;33.91
30730;BME280;17476;48.458;7.928;2023-03-04T13:25:41;100547.84;;;18.36;35.77
30730;BME280;17476;48.458;7.928;2023-03-04T13:43:43;100537.06;;;18.44;33.61
30730;BME280;17476;48.458;7.928;2023-03-04T13:49:05;100530.34;;;18.62;33.44
30730;BME280;17476;48.458;7.928;2023-03-04T13:51:39;100530.28;;;18.35;33.98
30730;BME280;17476;48.458;7.928;2023-03-04T13:54:40;100528.19;;;18.11;33.85
30730;BME280;17476;48.458;7.928;2023-03-04T13:57:18;100525.53;;;18.04;35.08
30730;BME280;17476;48.458;7.928;2023-03-04T13:59:49;100523.41;;;17.86;35.00
30730;BME280;17476;48.458;7.928;2023-03-04T14:02:21;100528.28;;;17.48;36.66
30730;BME280;17476;48.458;7.928;2023-03-04T14:07:36;100518.94;;;17.24;36.37
30730;BME280;17476;48.458;7.928;2023-03-04T14:12:43;100513.13;;;17.35;36.46
30730;BME280;17476;48.458;7.928;2023-03-04T14:17:38;100508.06;;;17.12;35.26
30730;BME280;17476;48.458;7.928;2023-03-04T14:20:30;100510.19;;;17.24;34.68
30730;BME280;17476;48.458;7.928;2023-03-04T14:22:58;100513.03;;;17.22;35.81
30730;BME280;17476;48.458;7.928;2023-03-04T14:25:31;100506.94;;;17.22;35.55
30730;BME280;17476;48.458;7.928;2023-03-04T14:28:10;100507.91;;;17.14;35.73
30730;BME280;17476;48.458;7.928;2023-03-04T14:30:36;100500.75;;;16.86;34.98
30730;BME280;17476;48.458;7.928;2023-03-04T14:33:07;100495.25;;;16.81;35.89
30730;BME280;17476;48.458;7.928;2023-03-04T14:35:33;100496.06;;;16.82;36.56
30730;BME280;17476;48.458;7.928;2023-03-04T14:38:31;100486.56;;;16.87;36.60
30730;BME280;17476;48.458;7.928;2023-03-04T14:41:14;100491.72;;;16.74;35.17
30730;BME280;17476;48.458;7.928;2023-03-04T14:44:31;100498.16;;;16.29;36.87
30730;BME280;17476;48.458;7.928;2023-03-04T14:47:34;100500.66;;;16.16;37.09
30730;BME280;17476;48.458;7.928;2023-03-04T14:50:09;100487.22;;;16.32;37.67
30730;BME280;17476;48.458;7.928;2023-03-04T14:52:41;100490.31;;;16.35;35.72
30730;BME280;17476;48.458;7.928;2023-03-04T14:57:44;100487.28;;;15.66;37.03
30730;BME280;17476;48.458;7.928;2023-03-04T15:00:37;100491.53;;;15.52;38.81
30730;BME280;17476;48.458;7.928;2023-03-04T15:03:27;100486.88;;;15.40;38.37